createdAt,value
2019-04-30T00:01:25.121Z,99.90
2019-04-30T00:03:59.641Z,99.90
2019-04-30T00:06:34.696Z,99.90
2019-04-30T00:09:02.573Z,99.90
2019-04-30T00:11:33.271Z,99.90
2019-04-30T00:14:05.572Z,99.90
2019-04-30T00:16:39.874Z,99.90
2019-04-30T00:19:10.632Z,99.90
2019-04-30T00:21:41.214Z,99.90
2019-04-30T00:24:11.905Z,99.90
2019-04-30T00:26:45.048Z,99.90
2019-04-30T00:29:19.120Z,99.90
2019-04-30T00:31:47.417Z,99.90
2019-04-30T00:34:18.126Z,99.90
2019-04-30T00:36:49.855Z,99.90
2019-04-30T00:39:20.798Z,99.90
2019-04-30T00:41:51.424Z,99.90
2019-04-30T00:44:24.797Z,99.90
2019-04-30T00:46:55.873Z,99.90
2019-04-30T00:49:26.769Z,99.90
2019-04-30T00:51:58.340Z,99.90
2019-04-30T00:54:30.864Z,99.90
2019-04-30T00:57:04.571Z,99.90
2019-04-30T00:59:35.092Z,99.90
2019-04-30T01:02:32.093Z,99.90
2019-04-30T01:05:05.352Z,99.90
2019-04-30T01:07:35.393Z,99.90
2019-04-30T01:10:06.978Z,99.90
2019-04-30T01:12:44.306Z,99.90
2019-04-30T01:15:11.121Z,99.90
2019-04-30T01:17:45.418Z,99.90
2019-04-30T01:20:15.222Z,99.90
2019-04-30T01:22:45.912Z,99.90
2019-04-30T01:25:18.685Z,99.90
2019-04-30T01:27:50.076Z,99.90
2019-04-30T01:30:22.661Z,99.90
2019-04-30T01:32:56.675Z,99.90
2019-04-30T01:35:30.919Z,99.90
2019-04-30T01:37:59.461Z,99.90
2019-04-30T01:40:30.362Z,99.90
2019-04-30T01:43:00.954Z,99.90
2019-04-30T01:45:31.923Z,99.90
2019-04-30T01:48:08.583Z,99.90
2019-04-30T01:50:38.652Z,99.90
2019-04-30T01:53:11.393Z,99.90
2019-04-30T01:55:59.199Z,99.90
2019-04-30T01:58:52.650Z,99.90
2019-04-30T02:01:24.792Z,99.90
2019-04-30T02:03:55.386Z,99.90
2019-04-30T02:06:25.957Z,99.90
2019-04-30T02:08:56.561Z,99.90
2019-04-30T02:11:28.754Z,99.90
2019-04-30T02:13:59.678Z,99.90
2019-04-30T02:16:30.613Z,99.90
2019-04-30T02:19:01.232Z,99.90
2019-04-30T02:21:33.327Z,99.90
2019-04-30T02:24:04.250Z,99.90
2019-04-30T02:26:34.913Z,99.90
2019-04-30T02:29:05.504Z,99.90
2019-04-30T02:31:36.077Z,99.90
2019-04-30T02:34:21.796Z,99.90
2019-04-30T02:36:55.496Z,99.90
2019-04-30T02:39:26.100Z,99.90
2019-04-30T02:41:59.784Z,99.90
2019-04-30T02:44:29.719Z,99.90
2019-04-30T02:47:01.585Z,99.90
2019-04-30T02:49:33.699Z,99.90
2019-04-30T02:52:05.261Z,99.90
2019-04-30T02:54:39.670Z,99.90
2019-04-30T02:57:12.342Z,99.90
2019-04-30T03:00:01.370Z,99.90
2019-04-30T03:02:33.483Z,99.90
2019-04-30T03:05:04.891Z,99.90
2019-04-30T03:07:35.457Z,99.90
2019-04-30T03:10:09.775Z,99.90
2019-04-30T03:12:40.526Z,99.90
2019-04-30T03:15:11.658Z,99.90
2019-04-30T03:18:00.989Z,99.90
2019-04-30T03:20:59.707Z,99.90
2019-04-30T03:23:30.315Z,99.90
2019-04-30T03:26:01.189Z,99.90
2019-04-30T03:28:31.778Z,99.90
2019-04-30T03:31:04.263Z,99.90
2019-04-30T03:33:34.800Z,99.90
2019-04-30T03:36:05.447Z,99.90
2019-04-30T03:38:36.315Z,99.90
2019-04-30T03:41:09.647Z,99.90
2019-04-30T03:43:40.114Z,99.90
2019-04-30T03:46:10.916Z,99.90
2019-04-30T03:48:41.482Z,99.90
2019-04-30T03:51:12.090Z,99.90
2019-04-30T03:53:42.898Z,99.90
2019-04-30T03:56:13.513Z,99.90
2019-04-30T03:58:44.212Z,99.90
2019-04-30T04:01:21.685Z,99.90
2019-04-30T04:04:15.697Z,99.90
2019-04-30T04:06:50.463Z,99.90
2019-04-30T04:09:26.656Z,99.90
2019-04-30T04:12:01.140Z,99.90
2019-04-30T04:14:31.701Z,99.90
2019-04-30T04:17:02.503Z,99.90
2019-04-30T04:19:33.075Z,99.90
2019-04-30T04:22:04.191Z,99.90
2019-04-30T04:24:35.287Z,99.90
2019-04-30T04:27:05.926Z,99.90
2019-04-30T04:29:37.203Z,99.90
2019-04-30T04:32:10.418Z,99.90
2019-04-30T04:34:40.191Z,99.90
2019-04-30T04:37:11.967Z,99.90
2019-04-30T04:39:42.540Z,99.90
2019-04-30T04:42:14.253Z,99.90
2019-04-30T04:44:45.166Z,99.90
2019-04-30T04:47:19.465Z,99.90
2019-04-30T04:49:53.109Z,99.90
2019-04-30T04:52:22.269Z,99.90
2019-04-30T04:54:53.136Z,99.90
2019-04-30T04:57:23.725Z,99.90
2019-04-30T04:59:54.318Z,99.90
2019-04-30T05:02:49.787Z,99.90
2019-04-30T05:05:20.300Z,99.90
2019-04-30T05:07:50.904Z,99.90
2019-04-30T05:10:21.462Z,99.90
2019-04-30T05:12:52.068Z,99.90
2019-04-30T05:15:22.633Z,99.90
2019-04-30T05:17:53.319Z,99.90
2019-04-30T05:20:23.890Z,99.90
2019-04-30T05:22:54.488Z,99.90
2019-04-30T05:25:25.052Z,99.90
2019-04-30T05:27:56.142Z,99.90
2019-04-30T05:30:26.715Z,99.90
2019-04-30T05:32:58.875Z,99.90
2019-04-30T05:35:31.005Z,99.90
2019-04-30T05:38:01.865Z,99.90
2019-04-30T05:40:32.506Z,99.90
2019-04-30T05:43:03.230Z,99.90
2019-04-30T05:45:33.859Z,99.90
2019-04-30T05:48:04.498Z,99.90
2019-04-30T05:50:36.173Z,99.90
2019-04-30T05:53:06.858Z,99.90
2019-04-30T05:55:39.611Z,99.90
2019-04-30T05:58:10.311Z,99.90
2019-04-30T06:00:40.916Z,99.90
2019-04-30T06:03:12.024Z,99.90
2019-04-30T06:05:42.669Z,99.90
2019-04-30T06:08:16.958Z,99.90
2019-04-30T06:10:55.619Z,99.90
2019-04-30T06:13:51.191Z,99.90
2019-04-30T06:16:23.864Z,99.90
2019-04-30T06:18:54.569Z,99.90
2019-04-30T06:21:25.141Z,99.90
2019-04-30T06:23:55.879Z,99.90
2019-04-30T06:26:26.567Z,99.90
2019-04-30T06:28:59.290Z,99.90
2019-04-30T06:31:34.794Z,99.90
2019-04-30T06:34:02.545Z,99.90
2019-04-30T06:36:33.455Z,99.90
2019-04-30T06:39:05.103Z,99.90
2019-04-30T06:41:35.745Z,99.90
2019-04-30T06:44:06.625Z,99.90
2019-04-30T06:46:38.731Z,99.90
2019-04-30T06:49:10.068Z,99.90
2019-04-30T06:51:40.651Z,35.00
2019-04-30T06:54:11.236Z,21.70
2019-04-30T06:56:41.804Z,88.50
2019-04-30T06:59:12.777Z,1.00
2019-04-30T07:01:43.346Z,1.00
2019-04-30T07:04:14.061Z,1.00
2019-04-30T07:06:45.345Z,1.00
2019-04-30T07:09:52.615Z,1.00
2019-04-30T07:12:28.570Z,1.00
2019-04-30T07:14:59.213Z,99.90
2019-04-30T07:17:29.946Z,99.90
2019-04-30T07:20:00.861Z,1.00
2019-04-30T07:22:39.796Z,99.90
2019-04-30T07:25:04.197Z,99.90
2019-04-30T07:27:35.105Z,99.90
2019-04-30T07:30:06.410Z,99.90
2019-04-30T07:32:38.735Z,99.90
2019-04-30T07:35:09.675Z,1.00
2019-04-30T07:37:40.312Z,99.90
2019-04-30T07:40:12.000Z,99.90
2019-04-30T07:42:44.976Z,1.00
2019-04-30T07:45:15.587Z,99.90
2019-04-30T07:47:46.225Z,1.00
2019-04-30T07:50:17.655Z,99.90
2019-04-30T07:53:01.680Z,1.00
2019-04-30T07:55:21.672Z,99.90
2019-04-30T07:57:52.231Z,1.00
2019-04-30T08:00:22.878Z,99.90
2019-04-30T08:03:01.469Z,99.90
2019-04-30T08:05:36.522Z,1.00
2019-04-30T08:08:20.294Z,1.00
2019-04-30T08:10:39.944Z,99.90
2019-04-30T08:13:14.926Z,47.30
2019-04-30T08:15:42.851Z,1.00
2019-04-30T08:18:13.457Z,1.00
2019-04-30T08:20:44.122Z,99.90
2019-04-30T08:23:32.902Z,99.90
2019-04-30T08:25:48.871Z,99.90
2019-04-30T08:28:19.425Z,99.90
2019-04-30T08:30:50.938Z,99.90
2019-04-30T08:33:21.517Z,99.90
2019-04-30T08:35:52.209Z,93.70
2019-04-30T08:38:22.777Z,50.40
2019-04-30T08:40:58.104Z,99.90
2019-04-30T08:43:25.773Z,18.40
2019-04-30T08:45:56.790Z,1.00
2019-04-30T08:48:41.936Z,1.00
2019-04-30T08:51:00.342Z,99.90
2019-04-30T08:53:33.744Z,99.90
2019-04-30T08:56:03.348Z,1.00
2019-04-30T08:58:34.654Z,1.00
2019-04-30T09:01:05.661Z,99.90
2019-04-30T09:03:36.535Z,99.90
2019-04-30T09:06:15.241Z,99.90
2019-04-30T09:08:48.989Z,99.90
2019-04-30T09:11:27.401Z,99.90
2019-04-30T09:13:52.140Z,99.90
2019-04-30T09:16:22.786Z,99.90
2019-04-30T09:18:53.349Z,99.90
2019-04-30T09:21:24.020Z,99.90
2019-04-30T09:23:54.589Z,99.90
2019-04-30T09:26:25.242Z,99.90
2019-04-30T09:28:55.842Z,99.90
2019-04-30T09:31:26.432Z,99.90
2019-04-30T09:34:00.148Z,99.90
2019-04-30T09:36:29.470Z,99.90
2019-04-30T09:39:01.422Z,99.90
2019-04-30T09:41:32.717Z,99.90
2019-04-30T09:44:03.390Z,99.90
2019-04-30T09:46:33.944Z,99.90
2019-04-30T09:49:05.009Z,99.90
2019-04-30T09:51:35.640Z,99.90
2019-04-30T09:54:09.324Z,99.90
2019-04-30T09:56:39.318Z,99.90
2019-04-30T09:59:10.027Z,99.90
2019-04-30T10:01:40.775Z,99.90
2019-04-30T10:04:11.724Z,99.90
2019-04-30T10:06:42.753Z,99.90
2019-04-30T10:09:14.775Z,99.90
2019-04-30T10:11:54.429Z,99.90
2019-04-30T10:14:24.979Z,99.90
2019-04-30T10:17:26.620Z,99.90
2019-04-30T10:19:57.293Z,99.90
2019-04-30T10:22:27.866Z,99.90
2019-04-30T10:24:59.658Z,99.90
2019-04-30T10:27:30.451Z,99.90
2019-04-30T10:30:01.328Z,99.90
2019-04-30T10:32:31.910Z,99.90
2019-04-30T10:35:02.546Z,99.90
2019-04-30T10:37:33.577Z,99.90
2019-04-30T10:40:04.779Z,99.90
2019-04-30T10:42:35.708Z,99.90
2019-04-30T10:45:09.835Z,99.90
2019-04-30T10:47:40.642Z,99.90
2019-04-30T10:50:11.638Z,99.90
2019-04-30T10:52:42.275Z,99.90
2019-04-30T10:55:13.061Z,99.90
2019-04-30T10:57:43.658Z,99.90
2019-04-30T11:00:16.184Z,99.90
2019-04-30T11:02:49.462Z,99.90
2019-04-30T11:05:21.142Z,99.90
2019-04-30T11:07:52.208Z,95.40
2019-04-30T11:10:25.154Z,95.30
2019-04-30T11:12:55.093Z,95.50
2019-04-30T11:15:25.654Z,94.90
2019-04-30T11:17:56.484Z,94.90
2019-04-30T11:20:28.011Z,95.60
2019-04-30T11:22:59.698Z,95.20
2019-04-30T11:25:31.551Z,95.30
2019-04-30T11:28:03.349Z,95.70
2019-04-30T11:30:34.517Z,95.00
2019-04-30T11:33:05.591Z,95.20
2019-04-30T11:35:36.472Z,95.20
2019-04-30T11:38:07.411Z,95.60
2019-04-30T11:40:39.884Z,96.00
2019-04-30T11:43:10.874Z,95.70
2019-04-30T11:46:59.601Z,95.50
2019-04-30T11:49:30.344Z,74.40
2019-04-30T11:52:01.099Z,58.40
2019-04-30T11:54:31.690Z,52.60
2019-04-30T11:57:02.280Z,50.90
2019-04-30T11:59:33.631Z,49.20
2019-04-30T12:02:09.100Z,49.20
2019-04-30T12:04:40.023Z,50.60
2019-04-30T12:07:18.734Z,53.90
2019-04-30T12:10:02.589Z,57.00
2019-04-30T12:12:33.508Z,49.00
2019-04-30T12:15:04.401Z,46.70
2019-04-30T12:17:34.955Z,45.50
2019-04-30T12:20:06.275Z,53.50
2019-04-30T12:22:37.154Z,44.10
2019-04-30T12:25:10.011Z,40.50
2019-04-30T12:27:41.088Z,43.60
2019-04-30T12:30:12.464Z,37.60
2019-04-30T12:32:43.009Z,42.20
2019-04-30T12:35:13.841Z,39.00
2019-04-30T12:37:44.402Z,39.20
2019-04-30T12:40:26.754Z,40.70
2019-04-30T12:42:48.686Z,44.60
2019-04-30T12:45:19.656Z,47.90
2019-04-30T12:47:54.977Z,42.40
2019-04-30T12:50:49.115Z,41.50
2019-04-30T12:53:25.247Z,44.90
2019-04-30T12:56:17.451Z,45.50
2019-04-30T12:58:47.998Z,51.60
2019-04-30T13:01:18.563Z,52.60
2019-04-30T13:03:58.068Z,51.30
2019-04-30T13:06:22.378Z,57.10
2019-04-30T13:08:54.262Z,51.30
2019-04-30T13:11:25.706Z,49.10
2019-04-30T13:13:57.711Z,56.00
2019-04-30T13:16:29.319Z,49.80
2019-04-30T13:19:00.112Z,50.90
2019-04-30T13:21:30.940Z,47.40
2019-04-30T13:24:01.569Z,53.00
2019-04-30T13:26:32.050Z,53.30
2019-04-30T13:29:08.232Z,52.30
2019-04-30T13:31:40.294Z,54.70
2019-04-30T13:34:29.958Z,49.00
2019-04-30T13:37:00.696Z,45.50
2019-04-30T13:39:49.463Z,52.00
2019-04-30T13:42:17.647Z,57.10
2019-04-30T13:44:49.256Z,53.40
2019-04-30T13:47:19.569Z,51.60
2019-04-30T13:49:50.112Z,54.10
2019-04-30T13:52:21.021Z,57.10
2019-04-30T13:54:51.581Z,57.70
2019-04-30T13:57:22.182Z,63.10
2019-04-30T13:59:52.747Z,58.50
2019-04-30T14:02:23.652Z,59.20
2019-04-30T14:05:05.710Z,57.80
2019-04-30T14:07:49.682Z,53.80
2019-04-30T14:10:20.346Z,56.00
2019-04-30T14:12:55.063Z,56.70
2019-04-30T14:15:25.768Z,62.30
2019-04-30T14:17:56.404Z,61.60
2019-04-30T14:20:26.873Z,60.10
2019-04-30T14:22:57.674Z,55.80
2019-04-30T14:25:28.404Z,52.60
2019-04-30T14:27:59.342Z,58.20
2019-04-30T14:30:30.175Z,60.40
2019-04-30T14:33:00.720Z,64.90
2019-04-30T14:35:31.342Z,63.50
2019-04-30T14:38:04.971Z,67.00
2019-04-30T14:40:35.296Z,71.80
2019-04-30T14:43:21.292Z,68.90
2019-04-30T14:46:10.441Z,68.00
2019-04-30T14:48:49.449Z,79.00
2019-04-30T14:51:19.116Z,73.60
2019-04-30T14:54:06.056Z,63.40
2019-04-30T14:56:42.236Z,80.20
2019-04-30T14:59:30.829Z,84.30
2019-04-30T15:02:08.928Z,86.60
2019-04-30T15:04:39.525Z,80.70
2019-04-30T15:07:10.159Z,86.30
2019-04-30T15:09:40.716Z,88.90
2019-04-30T15:12:11.313Z,81.10
2019-04-30T15:14:42.178Z,83.40
2019-04-30T15:17:12.777Z,83.40
2019-04-30T15:19:43.331Z,87.90
2019-04-30T15:22:14.342Z,97.20
2019-04-30T15:24:45.272Z,96.70
2019-04-30T15:27:15.877Z,95.20
2019-04-30T15:29:46.895Z,97.30
2019-04-30T15:32:18.591Z,92.90
2019-04-30T15:34:49.283Z,89.30
2019-04-30T15:37:23.645Z,91.20
2019-04-30T15:39:52.677Z,92.90
2019-04-30T15:42:24.285Z,95.90
2019-04-30T15:44:54.993Z,97.40
2019-04-30T15:47:26.148Z,98.70
2019-04-30T15:49:56.751Z,99.90
2019-04-30T15:52:28.843Z,98.10
2019-04-30T15:54:59.567Z,98.20
2019-04-30T15:57:30.175Z,98.00
2019-04-30T16:00:01.132Z,98.00
2019-04-30T16:02:57.663Z,97.50
2019-04-30T16:05:34.573Z,97.80
2019-04-30T16:08:23.166Z,97.90
2019-04-30T16:11:15.515Z,98.50
2019-04-30T16:14:20.427Z,98.00
2019-04-30T16:17:00.022Z,98.40
2019-04-30T16:19:30.977Z,98.10
2019-04-30T16:22:01.990Z,98.10
2019-04-30T16:24:32.602Z,98.50
2019-04-30T16:27:03.405Z,97.70
2019-04-30T16:29:34.452Z,97.90
2019-04-30T16:32:05.225Z,98.50
2019-04-30T16:34:36.338Z,98.70
2019-04-30T16:37:07.038Z,97.90
2019-04-30T16:39:39.680Z,98.00
2019-04-30T16:42:09.923Z,98.00
2019-04-30T16:44:40.789Z,98.30
2019-04-30T16:47:14.444Z,98.00
2019-04-30T16:49:43.818Z,98.70
2019-04-30T16:52:14.483Z,97.90
2019-04-30T16:54:45.120Z,98.00
2019-04-30T16:57:16.093Z,97.40
2019-04-30T16:59:46.717Z,97.00
2019-04-30T17:02:19.229Z,97.10
2019-04-30T17:04:58.229Z,96.90
2019-04-30T17:07:50.848Z,96.70
2019-04-30T17:10:35.229Z,99.60
2019-04-30T17:13:24.454Z,99.90
2019-04-30T17:15:58.224Z,99.90
2019-04-30T17:18:29.753Z,99.90
2019-04-30T17:21:00.565Z,99.90
2019-04-30T17:23:32.141Z,99.90
2019-04-30T17:26:02.734Z,99.90
2019-04-30T17:28:33.336Z,99.90
2019-04-30T17:31:04.099Z,99.90
2019-04-30T17:33:34.672Z,99.90
2019-04-30T17:36:05.612Z,99.90
2019-04-30T17:38:36.182Z,99.90
2019-04-30T17:41:06.814Z,99.90
2019-04-30T17:43:39.494Z,99.90
2019-04-30T17:46:10.602Z,99.90
2019-04-30T17:48:41.211Z,99.90
2019-04-30T17:51:11.769Z,99.90
2019-04-30T17:54:00.470Z,99.90
2019-04-30T17:56:31.121Z,99.90
2019-04-30T17:59:01.680Z,99.90
2019-04-30T18:01:32.453Z,99.90
2019-04-30T18:04:03.650Z,99.90
2019-04-30T18:06:34.279Z,99.90
2019-04-30T18:09:06.904Z,99.90
2019-04-30T18:11:39.549Z,99.90
2019-04-30T18:14:10.158Z,99.90
2019-04-30T18:16:40.750Z,99.90
2019-04-30T18:19:24.980Z,99.90
2019-04-30T18:21:59.844Z,99.90
2019-04-30T18:24:39.472Z,99.90
2019-04-30T18:27:21.411Z,99.90
2019-04-30T18:29:51.964Z,99.90
2019-04-30T18:32:24.334Z,99.90
2019-04-30T18:34:54.881Z,99.90
2019-04-30T18:37:25.559Z,99.90
2019-04-30T18:39:56.189Z,99.90
2019-04-30T18:42:28.965Z,99.90
2019-04-30T18:44:59.090Z,99.90
2019-04-30T18:47:29.979Z,99.90
2019-04-30T18:50:00.537Z,99.90
2019-04-30T18:52:31.523Z,99.90
2019-04-30T18:55:02.114Z,99.90
2019-04-30T18:57:32.669Z,99.90
2019-04-30T19:00:03.623Z,99.90
2019-04-30T19:02:34.195Z,99.90
2019-04-30T19:05:06.738Z,99.90
2019-04-30T19:07:43.477Z,99.90
2019-04-30T19:10:36.458Z,99.90
2019-04-30T19:13:25.187Z,99.90
2019-04-30T19:16:26.892Z,99.90
2019-04-30T19:19:09.416Z,99.90
2019-04-30T19:21:40.485Z,99.90
2019-04-30T19:24:11.113Z,99.90
2019-04-30T19:26:41.847Z,99.90
2019-04-30T19:29:12.824Z,99.90
2019-04-30T19:31:43.432Z,99.90
2019-04-30T19:34:14.395Z,99.90
2019-04-30T19:36:45.102Z,99.90
2019-04-30T19:39:19.419Z,99.90
2019-04-30T19:41:50.619Z,99.90
2019-04-30T19:44:21.580Z,99.90
2019-04-30T19:46:52.807Z,99.90
2019-04-30T19:49:23.373Z,99.90
2019-04-30T19:52:07.549Z,99.90
2019-04-30T19:54:26.406Z,99.90
2019-04-30T19:56:58.586Z,99.90
2019-04-30T19:59:29.606Z,99.90
2019-04-30T20:02:00.198Z,99.90
2019-04-30T20:04:35.594Z,99.90
2019-04-30T20:07:03.913Z,99.90
2019-04-30T20:09:34.516Z,99.90
2019-04-30T20:12:05.187Z,99.90
2019-04-30T20:14:39.157Z,99.90
2019-04-30T20:17:09.907Z,99.90
2019-04-30T20:19:41.937Z,99.90
2019-04-30T20:22:12.907Z,99.90
2019-04-30T20:24:43.655Z,99.90
2019-04-30T20:27:14.217Z,99.90
2019-04-30T20:29:44.978Z,99.90
2019-04-30T20:32:15.711Z,99.90
2019-04-30T20:34:46.316Z,99.90
2019-04-30T20:37:19.571Z,99.90
2019-04-30T20:40:01.271Z,99.90
2019-04-30T20:42:31.870Z,99.90
2019-04-30T20:45:03.828Z,99.90
2019-04-30T20:47:35.093Z,99.90
2019-04-30T20:50:06.271Z,99.90
2019-04-30T20:52:38.947Z,99.90
2019-04-30T20:55:10.015Z,99.90
2019-04-30T20:57:40.759Z,99.90
2019-04-30T21:00:11.664Z,99.90
2019-04-30T21:02:42.602Z,99.90
2019-04-30T21:05:13.510Z,99.90
2019-04-30T21:07:44.514Z,99.90
2019-04-30T21:10:15.139Z,99.90
2019-04-30T21:12:45.716Z,99.90
2019-04-30T21:15:16.568Z,99.90
2019-04-30T21:17:48.400Z,99.90
2019-04-30T21:20:20.271Z,99.90
2019-04-30T21:22:50.974Z,99.90
2019-04-30T21:25:21.571Z,99.90
2019-04-30T21:27:53.344Z,99.90
2019-04-30T21:30:24.024Z,99.90
2019-04-30T21:33:13.175Z,99.90
2019-04-30T21:35:50.690Z,99.90
2019-04-30T21:38:21.887Z,99.90
2019-04-30T21:40:52.416Z,99.90
2019-04-30T21:43:22.988Z,99.90
2019-04-30T21:45:53.637Z,99.90
2019-04-30T21:48:24.214Z,99.90
2019-04-30T21:50:55.884Z,99.90
2019-04-30T21:53:26.500Z,99.90
2019-04-30T21:55:57.430Z,99.90
2019-04-30T21:58:29.194Z,99.90
2019-04-30T22:01:18.427Z,99.90
2019-04-30T22:03:50.016Z,99.90
2019-04-30T22:06:21.035Z,99.90
2019-04-30T22:08:51.965Z,99.90
2019-04-30T22:11:22.521Z,99.90
2019-04-30T22:13:53.361Z,99.90
2019-04-30T22:16:24.052Z,99.90
2019-04-30T22:18:55.198Z,99.90
2019-04-30T22:21:25.829Z,99.90
2019-04-30T22:23:56.474Z,99.90
2019-04-30T22:26:27.157Z,99.90
2019-04-30T22:28:59.347Z,99.90
2019-04-30T22:31:30.319Z,99.90
2019-04-30T22:34:01.004Z,99.90
2019-04-30T22:36:42.697Z,99.90
2019-04-30T22:39:42.078Z,99.90
2019-04-30T22:42:32.903Z,1.00
2019-04-30T22:45:14.472Z,1.00
2019-04-30T22:47:45.449Z,1.00
2019-04-30T22:50:16.317Z,33.10
2019-04-30T22:52:47.310Z,99.90
2019-04-30T22:55:17.974Z,99.90
2019-04-30T22:57:48.551Z,99.90
2019-04-30T23:00:34.145Z,99.90
2019-04-30T23:03:08.634Z,99.90
2019-04-30T23:05:39.214Z,1.00
2019-04-30T23:08:09.789Z,99.90
2019-04-30T23:10:41.505Z,1.00
2019-04-30T23:13:12.112Z,99.90
2019-04-30T23:15:42.870Z,1.00
2019-04-30T23:18:13.442Z,1.00
2019-04-30T23:20:44.023Z,1.00
2019-04-30T23:23:14.533Z,1.00
2019-04-30T23:25:45.192Z,1.00
2019-04-30T23:28:15.769Z,1.00
2019-04-30T23:30:46.358Z,1.00
2019-04-30T23:33:16.919Z,1.00
2019-04-30T23:35:47.548Z,1.00
2019-04-30T23:38:18.114Z,1.00
2019-04-30T23:40:53.190Z,99.90
2019-04-30T23:43:23.744Z,80.20
2019-04-30T23:45:54.701Z,21.90
2019-04-30T23:48:25.249Z,1.00
2019-04-30T23:50:56.261Z,1.00
2019-04-30T23:53:26.809Z,1.00
2019-04-30T23:55:57.786Z,1.00
2019-04-30T23:58:28.334Z,1.00
